sensor_id;sensor_type;location;lat;lon;timestamp;P1;durP1;ratioP1;P2;durP2;ratioP2
71423;SDS011;59240;51.370;-0.486;2022-10-15T00:00:39;21.65;;;13.73;;
71423;SDS011;59240;51.370;-0.486;2022-10-15T00:03:05;19.35;;;11.82;;
71423;SDS011;59240;51.370;-0.486;2022-10-15T00:05:34;23.67;;;13.73;;
71423;SDS011;59240;51.370;-0.486;2022-10-15T00:08:02;17.85;;;12.40;;
71423;SDS011;59240;51.370;-0.486;2022-10-15T00:10:29;16.77;;;11.02;;
71423;SDS011;59240;51.370;-0.486;2022-10-15T00:12:55;20.70;;;11.85;;
71423;SDS011;59240;51.370;-0.486;2022-10-15T00:15:22;22.17;;;13.30;;
71423;SDS011;59240;51.370;-0.486;2022-10-15T00:17:49;20.67;;;12.93;;
71423;SDS011;59240;51.370;-0.486;2022-10-15T00:20:15;19.90;;;12.38;;
71423;SDS011;59240;51.370;-0.486;2022-10-15T00:22:43;27.48;;;15.02;;
71423;SDS011;59240;51.370;-0.486;2022-10-15T00:25:09;22.83;;;13.65;;
71423;SDS011;59240;51.370;-0.486;2022-10-15T00:27:36;14.93;;;12.00;;
71423;SDS011;59240;51.370;-0.486;2022-10-15T00:30:03;20.40;;;12.10;;
71423;SDS011;59240;51.370;-0.486;2022-10-15T00:32:31;22.38;;;11.73;;
71423;SDS011;59240;51.370;-0.486;2022-10-15T00:34:58;20.52;;;12.70;;
71423;SDS011;59240;51.370;-0.486;2022-10-15T00:37:25;18.60;;;10.95;;
71423;SDS011;59240;51.370;-0.486;2022-10-15T00:39:51;16.92;;;10.95;;
71423;SDS011;59240;51.370;-0.486;2022-10-15T00:42:18;19.40;;;11.18;;
71423;SDS011;59240;51.370;-0.486;2022-10-15T00:44:49;20.85;;;10.40;;
71423;SDS011;59240;51.370;-0.486;2022-10-15T00:47:30;20.40;;;10.98;;
71423;SDS011;59240;51.370;-0.486;2022-10-15T00:50:06;18.08;;;11.55;;
71423;SDS011;59240;51.370;-0.486;2022-10-15T00:55:29;16.27;;;10.32;;
71423;SDS011;59240;51.370;-0.486;2022-10-15T00:57:59;22.02;;;13.10;;
71423;SDS011;59240;51.370;-0.486;2022-10-15T01:00:30;21.02;;;11.85;;
71423;SDS011;59240;51.370;-0.486;2022-10-15T01:02:57;18.00;;;12.68;;
71423;SDS011;59240;51.370;-0.486;2022-10-15T01:05:24;23.17;;;14.48;;
71423;SDS011;59240;51.370;-0.486;2022-10-15T01:07:52;17.73;;;12.27;;
71423;SDS011;59240;51.370;-0.486;2022-10-15T01:10:18;20.98;;;13.07;;
71423;SDS011;59240;51.370;-0.486;2022-10-15T01:13:09;23.85;;;12.98;;
71423;SDS011;59240;51.370;-0.486;2022-10-15T01:15:48;24.30;;;13.57;;
71423;SDS011;59240;51.370;-0.486;2022-10-15T01:18:23;22.65;;;15.00;;
71423;SDS011;59240;51.370;-0.486;2022-10-15T01:32:22;25.13;;;11.35;;
71423;SDS011;59240;51.370;-0.486;2022-10-15T01:35:14;17.88;;;11.20;;
71423;SDS011;59240;51.370;-0.486;2022-10-15T01:37:54;19.58;;;10.65;;
71423;SDS011;59240;51.370;-0.486;2022-10-15T01:40:35;22.27;;;11.00;;
71423;SDS011;59240;51.370;-0.486;2022-10-15T01:43:10;18.80;;;10.80;;
71423;SDS011;59240;51.370;-0.486;2022-10-15T01:45:46;24.83;;;12.10;;
71423;SDS011;59240;51.370;-0.486;2022-10-15T01:48:17;19.45;;;11.90;;
71423;SDS011;59240;51.370;-0.486;2022-10-15T01:50:46;18.40;;;12.88;;
71423;SDS011;59240;51.370;-0.486;2022-10-15T01:53:16;24.27;;;13.80;;
71423;SDS011;59240;51.370;-0.486;2022-10-15T01:55:52;18.83;;;12.20;;
71423;SDS011;59240;51.370;-0.486;2022-10-15T01:58:23;25.55;;;13.55;;
71423;SDS011;59240;51.370;-0.486;2022-10-15T02:00:51;17.00;;;11.77;;
71423;SDS011;59240;51.370;-0.486;2022-10-15T02:03:20;19.13;;;12.80;;
71423;SDS011;59240;51.370;-0.486;2022-10-15T02:05:48;20.60;;;12.45;;
71423;SDS011;59240;51.370;-0.486;2022-10-15T02:08:35;17.08;;;10.93;;
71423;SDS011;59240;51.370;-0.486;2022-10-15T02:11:03;19.35;;;12.00;;
71423;SDS011;59240;51.370;-0.486;2022-10-15T02:13:50;22.13;;;10.70;;
71423;SDS011;59240;51.370;-0.486;2022-10-15T02:16:42;18.33;;;11.20;;
71423;SDS011;59240;51.370;-0.486;2022-10-15T02:22:25;16.33;;;10.65;;
71423;SDS011;59240;51.370;-0.486;2022-10-15T02:25:05;16.85;;;10.05;;
71423;SDS011;59240;51.370;-0.486;2022-10-15T02:27:39;17.23;;;10.25;;
71423;SDS011;59240;51.370;-0.486;2022-10-15T02:30:07;19.90;;;10.85;;
71423;SDS011;59240;51.370;-0.486;2022-10-15T02:32:36;16.98;;;9.25;;
71423;SDS011;59240;51.370;-0.486;2022-10-15T02:35:06;26.30;;;11.02;;
71423;SDS011;59240;51.370;-0.486;2022-10-15T02:37:35;16.35;;;10.25;;
71423;SDS011;59240;51.370;-0.486;2022-10-15T02:40:03;18.90;;;9.60;;
71423;SDS011;59240;51.370;-0.486;2022-10-15T02:42:30;15.40;;;9.73;;
71423;SDS011;59240;51.370;-0.486;2022-10-15T02:44:57;21.42;;;11.35;;
71423;SDS011;59240;51.370;-0.486;2022-10-15T02:47:23;17.80;;;10.15;;
71423;SDS011;59240;51.370;-0.486;2022-10-15T02:49:54;21.80;;;12.00;;
71423;SDS011;59240;51.370;-0.486;2022-10-15T02:52:21;41.92;;;20.85;;
71423;SDS011;59240;51.370;-0.486;2022-10-15T02:54:51;32.88;;;14.68;;
71423;SDS011;59240;51.370;-0.486;2022-10-15T02:57:17;26.52;;;13.93;;
71423;SDS011;59240;51.370;-0.486;2022-10-15T02:59:44;30.95;;;15.93;;
71423;SDS011;59240;51.370;-0.486;2022-10-15T03:02:10;37.40;;;14.15;;
71423;SDS011;59240;51.370;-0.486;2022-10-15T03:04:43;32.20;;;13.98;;
71423;SDS011;59240;51.370;-0.486;2022-10-15T03:07:10;28.67;;;13.63;;
71423;SDS011;59240;51.370;-0.486;2022-10-15T03:09:36;34.70;;;13.02;;
71423;SDS011;59240;51.370;-0.486;2022-10-15T03:12:03;34.42;;;14.90;;
71423;SDS011;59240;51.370;-0.486;2022-10-15T03:14:30;29.13;;;13.27;;
71423;SDS011;59240;51.370;-0.486;2022-10-15T03:16:56;23.05;;;12.13;;
71423;SDS011;59240;51.370;-0.486;2022-10-15T03:19:23;23.15;;;12.23;;
71423;SDS011;59240;51.370;-0.486;2022-10-15T03:21:49;23.90;;;12.52;;
71423;SDS011;59240;51.370;-0.486;2022-10-15T03:24:15;23.35;;;12.75;;
71423;SDS011;59240;51.370;-0.486;2022-10-15T03:26:42;24.60;;;12.13;;
71423;SDS011;59240;51.370;-0.486;2022-10-15T03:29:08;27.48;;;13.38;;
71423;SDS011;59240;51.370;-0.486;2022-10-15T03:31:35;30.10;;;13.27;;
71423;SDS011;59240;51.370;-0.486;2022-10-15T03:34:01;38.05;;;14.95;;
71423;SDS011;59240;51.370;-0.486;2022-10-15T03:36:28;30.33;;;13.35;;
71423;SDS011;59240;51.370;-0.486;2022-10-15T03:38:55;26.25;;;13.13;;
71423;SDS011;59240;51.370;-0.486;2022-10-15T03:41:21;28.25;;;13.52;;
71423;SDS011;59240;51.370;-0.486;2022-10-15T03:43:48;29.88;;;12.02;;
71423;SDS011;59240;51.370;-0.486;2022-10-15T03:46:14;34.03;;;13.52;;
71423;SDS011;59240;51.370;-0.486;2022-10-15T03:48:41;28.40;;;11.82;;
71423;SDS011;59240;51.370;-0.486;2022-10-15T03:51:08;34.03;;;13.38;;
71423;SDS011;59240;51.370;-0.486;2022-10-15T03:53:34;26.73;;;11.95;;
71423;SDS011;59240;51.370;-0.486;2022-10-15T03:56:02;25.10;;;11.25;;
71423;SDS011;59240;51.370;-0.486;2022-10-15T03:58:31;28.70;;;11.32;;
71423;SDS011;59240;51.370;-0.486;2022-10-15T04:00:59;27.48;;;10.77;;
71423;SDS011;59240;51.370;-0.486;2022-10-15T04:03:26;25.38;;;11.18;;
71423;SDS011;59240;51.370;-0.486;2022-10-15T04:05:52;24.83;;;10.82;;
71423;SDS011;59240;51.370;-0.486;2022-10-15T04:08:21;23.80;;;10.48;;
71423;SDS011;59240;51.370;-0.486;2022-10-15T04:10:49;27.73;;;11.50;;
71423;SDS011;59240;51.370;-0.486;2022-10-15T04:13:16;25.55;;;12.20;;
71423;SDS011;59240;51.370;-0.486;2022-10-15T04:15:42;30.10;;;11.18;;
71423;SDS011;59240;51.370;-0.486;2022-10-15T04:18:09;26.55;;;11.63;;
71423;SDS011;59240;51.370;-0.486;2022-10-15T04:20:36;29.42;;;11.30;;
71423;SDS011;59240;51.370;-0.486;2022-10-15T04:23:03;26.58;;;11.15;;
71423;SDS011;59240;51.370;-0.486;2022-10-15T04:25:30;34.00;;;11.93;;
71423;SDS011;59240;51.370;-0.486;2022-10-15T04:27:56;28.40;;;11.63;;
71423;SDS011;59240;51.370;-0.486;2022-10-15T04:30:23;41.95;;;13.07;;
71423;SDS011;59240;51.370;-0.486;2022-10-15T04:32:52;47.28;;;13.43;;
71423;SDS011;59240;51.370;-0.486;2022-10-15T04:35:20;51.50;;;13.90;;
71423;SDS011;59240;51.370;-0.486;2022-10-15T04:37:47;43.15;;;13.93;;
71423;SDS011;59240;51.370;-0.486;2022-10-15T04:40:13;46.20;;;13.52;;
71423;SDS011;59240;51.370;-0.486;2022-10-15T04:42:41;61.28;;;13.82;;
71423;SDS011;59240;51.370;-0.486;2022-10-15T04:45:07;71.72;;;14.32;;
71423;SDS011;59240;51.370;-0.486;2022-10-15T04:47:34;66.95;;;13.85;;
71423;SDS011;59240;51.370;-0.486;2022-10-15T04:50:01;44.63;;;13.55;;
71423;SDS011;59240;51.370;-0.486;2022-10-15T04:52:27;42.78;;;13.23;;
71423;SDS011;59240;51.370;-0.486;2022-10-15T04:54:54;34.83;;;12.60;;
71423;SDS011;59240;51.370;-0.486;2022-10-15T04:57:21;40.00;;;12.73;;
71423;SDS011;59240;51.370;-0.486;2022-10-15T04:59:48;38.78;;;13.38;;
71423;SDS011;59240;51.370;-0.486;2022-10-15T05:02:20;35.15;;;12.93;;
71423;SDS011;59240;51.370;-0.486;2022-10-15T05:04:47;32.17;;;12.23;;
71423;SDS011;59240;51.370;-0.486;2022-10-15T05:07:13;32.10;;;12.23;;
71423;SDS011;59240;51.370;-0.486;2022-10-15T05:09:40;43.08;;;12.95;;
71423;SDS011;59240;51.370;-0.486;2022-10-15T05:12:11;41.20;;;12.77;;
71423;SDS011;59240;51.370;-0.486;2022-10-15T05:14:38;93.32;;;14.70;;
71423;SDS011;59240;51.370;-0.486;2022-10-15T05:17:04;110.20;;;15.32;;
71423;SDS011;59240;51.370;-0.486;2022-10-15T05:19:31;110.15;;;15.07;;
71423;SDS011;59240;51.370;-0.486;2022-10-15T05:21:57;125.47;;;14.95;;
71423;SDS011;59240;51.370;-0.486;2022-10-15T05:24:24;130.15;;;14.73;;
71423;SDS011;59240;51.370;-0.486;2022-10-15T05:26:50;127.60;;;14.20;;
71423;SDS011;59240;51.370;-0.486;2022-10-15T05:29:17;70.38;;;13.25;;
71423;SDS011;59240;51.370;-0.486;2022-10-15T05:31:43;107.15;;;14.27;;
71423;SDS011;59240;51.370;-0.486;2022-10-15T05:34:11;60.55;;;11.77;;
71423;SDS011;59240;51.370;-0.486;2022-10-15T05:36:37;77.30;;;11.63;;
71423;SDS011;59240;51.370;-0.486;2022-10-15T05:39:04;51.10;;;11.05;;
71423;SDS011;59240;51.370;-0.486;2022-10-15T05:41:35;62.10;;;11.32;;
71423;SDS011;59240;51.370;-0.486;2022-10-15T05:44:02;55.80;;;11.15;;
71423;SDS011;59240;51.370;-0.486;2022-10-15T05:46:28;81.13;;;12.10;;
71423;SDS011;59240;51.370;-0.486;2022-10-15T05:48:56;46.17;;;11.40;;
71423;SDS011;59240;51.370;-0.486;2022-10-15T05:51:23;66.22;;;11.15;;
71423;SDS011;59240;51.370;-0.486;2022-10-15T05:53:51;72.65;;;12.50;;
71423;SDS011;59240;51.370;-0.486;2022-10-15T05:56:19;71.47;;;11.73;;
71423;SDS011;59240;51.370;-0.486;2022-10-15T05:58:46;104.07;;;11.40;;
71423;SDS011;59240;51.370;-0.486;2022-10-15T06:01:13;79.15;;;11.52;;
71423;SDS011;59240;51.370;-0.486;2022-10-15T06:03:40;69.93;;;11.38;;
71423;SDS011;59240;51.370;-0.486;2022-10-15T06:06:21;70.57;;;11.05;;
71423;SDS011;59240;51.370;-0.486;2022-10-15T06:08:50;59.70;;;11.52;;
71423;SDS011;59240;51.370;-0.486;2022-10-15T06:11:17;54.83;;;12.13;;
71423;SDS011;59240;51.370;-0.486;2022-10-15T06:13:45;53.15;;;12.75;;
71423;SDS011;59240;51.370;-0.486;2022-10-15T06:16:12;56.80;;;14.18;;
71423;SDS011;59240;51.370;-0.486;2022-10-15T06:18:46;43.65;;;12.55;;
71423;SDS011;59240;51.370;-0.486;2022-10-15T06:21:12;41.85;;;12.80;;
71423;SDS011;59240;51.370;-0.486;2022-10-15T06:23:39;47.53;;;13.38;;
71423;SDS011;59240;51.370;-0.486;2022-10-15T06:26:06;41.35;;;12.25;;
71423;SDS011;59240;51.370;-0.486;2022-10-15T06:28:34;33.88;;;11.68;;
71423;SDS011;59240;51.370;-0.486;2022-10-15T06:31:02;30.23;;;10.93;;
71423;SDS011;59240;51.370;-0.486;2022-10-15T06:33:29;32.28;;;10.50;;
71423;SDS011;59240;51.370;-0.486;2022-10-15T06:36:03;50.55;;;10.93;;
71423;SDS011;59240;51.370;-0.486;2022-10-15T06:38:32;31.15;;;9.60;;
71423;SDS011;59240;51.370;-0.486;2022-10-15T06:40:59;32.90;;;9.63;;
71423;SDS011;59240;51.370;-0.486;2022-10-15T06:43:29;27.42;;;9.90;;
71423;SDS011;59240;51.370;-0.486;2022-10-15T06:46:00;30.23;;;10.18;;
71423;SDS011;59240;51.370;-0.486;2022-10-15T06:48:29;31.30;;;15.93;;
71423;SDS011;59240;51.370;-0.486;2022-10-15T06:50:56;37.35;;;15.02;;
71423;SDS011;59240;51.370;-0.486;2022-10-15T06:53:24;34.35;;;13.90;;
71423;SDS011;59240;51.370;-0.486;2022-10-15T06:55:50;32.90;;;13.65;;
71423;SDS011;59240;51.370;-0.486;2022-10-15T06:58:17;38.08;;;12.98;;
71423;SDS011;59240;51.370;-0.486;2022-10-15T07:00:43;29.30;;;12.00;;
71423;SDS011;59240;51.370;-0.486;2022-10-15T07:03:10;31.85;;;11.80;;
71423;SDS011;59240;51.370;-0.486;2022-10-15T07:05:36;32.42;;;11.10;;
71423;SDS011;59240;51.370;-0.486;2022-10-15T07:08:03;30.65;;;11.25;;
71423;SDS011;59240;51.370;-0.486;2022-10-15T07:10:30;30.73;;;10.77;;
71423;SDS011;59240;51.370;-0.486;2022-10-15T07:13:00;32.67;;;12.57;;
71423;SDS011;59240;51.370;-0.486;2022-10-15T07:15:27;34.80;;;13.05;;
71423;SDS011;59240;51.370;-0.486;2022-10-15T07:17:54;30.73;;;13.40;;
71423;SDS011;59240;51.370;-0.486;2022-10-15T07:20:22;40.25;;;14.25;;
71423;SDS011;59240;51.370;-0.486;2022-10-15T07:22:50;41.70;;;14.77;;
71423;SDS011;59240;51.370;-0.486;2022-10-15T07:25:21;33.42;;;14.35;;
71423;SDS011;59240;51.370;-0.486;2022-10-15T07:27:47;34.97;;;16.77;;
71423;SDS011;59240;51.370;-0.486;2022-10-15T07:30:14;36.88;;;17.63;;
71423;SDS011;59240;51.370;-0.486;2022-10-15T07:32:40;37.53;;;16.60;;
71423;SDS011;59240;51.370;-0.486;2022-10-15T07:35:11;29.42;;;13.15;;
71423;SDS011;59240;51.370;-0.486;2022-10-15T07:37:38;27.08;;;11.68;;
71423;SDS011;59240;51.370;-0.486;2022-10-15T07:40:04;18.52;;;11.07;;
71423;SDS011;59240;51.370;-0.486;2022-10-15T07:42:32;25.42;;;11.88;;
71423;SDS011;59240;51.370;-0.486;2022-10-15T07:44:58;23.73;;;11.43;;
71423;SDS011;59240;51.370;-0.486;2022-10-15T07:47:25;20.52;;;10.40;;
71423;SDS011;59240;51.370;-0.486;2022-10-15T07:49:52;22.75;;;10.23;;
71423;SDS011;59240;51.370;-0.486;2022-10-15T07:52:18;14.93;;;8.50;;
71423;SDS011;59240;51.370;-0.486;2022-10-15T07:54:45;19.08;;;8.63;;
71423;SDS011;59240;51.370;-0.486;2022-10-15T07:57:11;12.30;;;6.97;;
71423;SDS011;59240;51.370;-0.486;2022-10-15T07:59:38;15.88;;;6.55;;
71423;SDS011;59240;51.370;-0.486;2022-10-15T08:02:04;16.65;;;6.57;;
71423;SDS011;59240;51.370;-0.486;2022-10-15T08:04:31;15.02;;;5.60;;
71423;SDS011;59240;51.370;-0.486;2022-10-15T08:07:00;11.85;;;5.82;;
71423;SDS011;59240;51.370;-0.486;2022-10-15T08:09:27;15.57;;;5.25;;
71423;SDS011;59240;51.370;-0.486;2022-10-15T08:11:53;14.88;;;5.15;;
71423;SDS011;59240;51.370;-0.486;2022-10-15T08:14:20;10.63;;;4.82;;
71423;SDS011;59240;51.370;-0.486;2022-10-15T08:16:46;9.88;;;4.22;;
71423;SDS011;59240;51.370;-0.486;2022-10-15T08:19:13;11.40;;;4.10;;
71423;SDS011;59240;51.370;-0.486;2022-10-15T08:21:43;8.27;;;3.70;;
71423;SDS011;59240;51.370;-0.486;2022-10-15T08:24:12;10.82;;;3.88;;
71423;SDS011;59240;51.370;-0.486;2022-10-15T08:26:39;8.85;;;3.58;;
71423;SDS011;59240;51.370;-0.486;2022-10-15T08:29:05;7.18;;;2.78;;
71423;SDS011;59240;51.370;-0.486;2022-10-15T08:31:32;7.45;;;2.30;;
71423;SDS011;59240;51.370;-0.486;2022-10-15T08:33:59;7.60;;;2.33;;
71423;SDS011;59240;51.370;-0.486;2022-10-15T08:36:26;8.52;;;2.28;;
71423;SDS011;59240;51.370;-0.486;2022-10-15T08:38:53;9.80;;;2.58;;
71423;SDS011;59240;51.370;-0.486;2022-10-15T08:44:01;7.45;;;2.20;;
71423;SDS011;59240;51.370;-0.486;2022-10-15T08:46:36;10.85;;;2.08;;
71423;SDS011;59240;51.370;-0.486;2022-10-15T08:49:26;6.95;;;1.85;;
71423;SDS011;59240;51.370;-0.486;2022-10-15T08:55:08;12.13;;;2.35;;
71423;SDS011;59240;51.370;-0.486;2022-10-15T08:57:40;6.22;;;1.80;;
71423;SDS011;59240;51.370;-0.486;2022-10-15T09:10:38;6.30;;;1.33;;
71423;SDS011;59240;51.370;-0.486;2022-10-15T09:16:00;4.55;;;1.45;;
71423;SDS011;59240;51.370;-0.486;2022-10-15T09:18:31;7.80;;;1.42;;
71423;SDS011;59240;51.370;-0.486;2022-10-15T09:21:01;7.38;;;1.42;;
71423;SDS011;59240;51.370;-0.486;2022-10-15T09:23:33;4.97;;;1.27;;
71423;SDS011;59240;51.370;-0.486;2022-10-15T09:26:02;5.88;;;1.17;;
71423;SDS011;59240;51.370;-0.486;2022-10-15T09:28:37;2.50;;;0.90;;
71423;SDS011;59240;51.370;-0.486;2022-10-15T09:31:12;3.90;;;1.25;;
71423;SDS011;59240;51.370;-0.486;2022-10-15T09:34:28;4.65;;;1.15;;
71423;SDS011;59240;51.370;-0.486;2022-10-15T09:36:49;8.57;;;1.48;;
71423;SDS011;59240;51.370;-0.486;2022-10-15T09:42:09;2.92;;;1.05;;
71423;SDS011;59240;51.370;-0.486;2022-10-15T09:44:45;4.15;;;0.88;;
71423;SDS011;59240;51.370;-0.486;2022-10-15T09:49:48;6.13;;;0.80;;
71423;SDS011;59240;51.370;-0.486;2022-10-15T09:58:01;4.20;;;1.20;;
71423;SDS011;59240;51.370;-0.486;2022-10-15T10:00:51;6.30;;;1.10;;
71423;SDS011;59240;51.370;-0.486;2022-10-15T10:03:24;6.70;;;1.08;;
71423;SDS011;59240;51.370;-0.486;2022-10-15T10:05:59;5.63;;;0.98;;
71423;SDS011;59240;51.370;-0.486;2022-10-15T10:08:31;1.80;;;0.80;;
71423;SDS011;59240;51.370;-0.486;2022-10-15T10:11:04;6.25;;;1.13;;
71423;SDS011;59240;51.370;-0.486;2022-10-15T10:13:39;2.58;;;0.90;;
71423;SDS011;59240;51.370;-0.486;2022-10-15T10:16:12;5.13;;;1.00;;
71423;SDS011;59240;51.370;-0.486;2022-10-15T10:18:40;6.70;;;1.00;;
71423;SDS011;59240;51.370;-0.486;2022-10-15T10:21:23;6.15;;;1.38;;
71423;SDS011;59240;51.370;-0.486;2022-10-15T10:26:46;6.28;;;1.20;;
71423;SDS011;59240;51.370;-0.486;2022-10-15T10:29:20;4.65;;;1.30;;
71423;SDS011;59240;51.370;-0.486;2022-10-15T10:31:59;5.93;;;1.50;;
71423;SDS011;59240;51.370;-0.486;2022-10-15T10:34:45;5.80;;;1.10;;
71423;SDS011;59240;51.370;-0.486;2022-10-15T10:37:18;6.35;;;1.40;;
71423;SDS011;59240;51.370;-0.486;2022-10-15T10:39:45;4.05;;;1.02;;
71423;SDS011;59240;51.370;-0.486;2022-10-15T10:44:45;4.75;;;1.20;;
71423;SDS011;59240;51.370;-0.486;2022-10-15T10:47:33;2.70;;;0.90;;
71423;SDS011;59240;51.370;-0.486;2022-10-15T10:50:03;7.50;;;1.30;;
71423;SDS011;59240;51.370;-0.486;2022-10-15T10:52:55;3.85;;;1.00;;
71423;SDS011;59240;51.370;-0.486;2022-10-15T10:55:22;7.43;;;1.10;;
71423;SDS011;59240;51.370;-0.486;2022-10-15T10:58:04;8.18;;;1.23;;
71423;SDS011;59240;51.370;-0.486;2022-10-15T11:00:37;2.03;;;0.80;;
71423;SDS011;59240;51.370;-0.486;2022-10-15T11:03:11;5.05;;;1.08;;
71423;SDS011;59240;51.370;-0.486;2022-10-15T11:08:33;49.70;;;3.25;;
71423;SDS011;59240;51.370;-0.486;2022-10-15T11:11:16;3.60;;;0.80;;
71423;SDS011;59240;51.370;-0.486;2022-10-15T11:14:01;3.78;;;1.17;;
71423;SDS011;59240;51.370;-0.486;2022-10-15T11:36:22;3.15;;;1.00;;
71423;SDS011;59240;51.370;-0.486;2022-10-15T11:41:48;2.70;;;0.88;;
71423;SDS011;59240;51.370;-0.486;2022-10-15T11:52:19;4.07;;;1.23;;
71423;SDS011;59240;51.370;-0.486;2022-10-15T11:54:55;3.55;;;1.10;;
71423;SDS011;59240;51.370;-0.486;2022-10-15T11:57:43;3.63;;;1.00;;
71423;SDS011;59240;51.370;-0.486;2022-10-15T12:03:16;4.32;;;1.27;;
71423;SDS011;59240;51.370;-0.486;2022-10-15T12:05:52;8.07;;;1.30;;
71423;SDS011;59240;51.370;-0.486;2022-10-15T12:08:22;7.10;;;1.10;;
71423;SDS011;59240;51.370;-0.486;2022-10-15T12:22:02;4.20;;;1.15;;
71423;SDS011;59240;51.370;-0.486;2022-10-15T12:27:24;6.55;;;1.30;;
71423;SDS011;59240;51.370;-0.486;2022-10-15T12:35:03;6.10;;;1.13;;
71423;SDS011;59240;51.370;-0.486;2022-10-15T12:37:33;4.40;;;1.10;;
71423;SDS011;59240;51.370;-0.486;2022-10-15T12:40:04;4.80;;;1.38;;
71423;SDS011;59240;51.370;-0.486;2022-10-15T12:43:02;4.85;;;1.52;;
71423;SDS011;59240;51.370;-0.486;2022-10-15T12:45:38;8.55;;;1.50;;
71423;SDS011;59240;51.370;-0.486;2022-10-15T12:50:33;7.43;;;1.60;;
71423;SDS011;59240;51.370;-0.486;2022-10-15T12:53:03;5.10;;;1.40;;
71423;SDS011;59240;51.370;-0.486;2022-10-15T12:56:10;5.78;;;1.33;;
71423;SDS011;59240;51.370;-0.486;2022-10-15T12:58:39;5.32;;;1.52;;
71423;SDS011;59240;51.370;-0.486;2022-10-15T13:11:23;10.32;;;1.70;;
71423;SDS011;59240;51.370;-0.486;2022-10-15T13:14:02;8.63;;;1.63;;
71423;SDS011;59240;51.370;-0.486;2022-10-15T13:16:46;11.95;;;1.98;;
71423;SDS011;59240;51.370;-0.486;2022-10-15T13:19:24;6.85;;;1.60;;
71423;SDS011;59240;51.370;-0.486;2022-10-15T13:21:54;7.70;;;1.88;;
71423;SDS011;59240;51.370;-0.486;2022-10-15T13:24:26;8.35;;;1.50;;
71423;SDS011;59240;51.370;-0.486;2022-10-15T13:26:55;8.45;;;1.67;;
71423;SDS011;59240;51.370;-0.486;2022-10-15T13:29:25;6.50;;;1.60;;
71423;SDS011;59240;51.370;-0.486;2022-10-15T13:31:53;7.00;;;1.73;;
71423;SDS011;59240;51.370;-0.486;2022-10-15T13:34:26;9.07;;;1.75;;
71423;SDS011;59240;51.370;-0.486;2022-10-15T13:36:56;9.07;;;2.03;;
71423;SDS011;59240;51.370;-0.486;2022-10-15T13:39:28;12.55;;;1.95;;
71423;SDS011;59240;51.370;-0.486;2022-10-15T13:42:06;6.25;;;1.50;;
71423;SDS011;59240;51.370;-0.486;2022-10-15T13:44:35;10.88;;;2.17;;
71423;SDS011;59240;51.370;-0.486;2022-10-15T13:47:02;8.85;;;1.63;;
71423;SDS011;59240;51.370;-0.486;2022-10-15T13:49:44;11.00;;;2.05;;
71423;SDS011;59240;51.370;-0.486;2022-10-15T13:52:10;9.35;;;2.13;;
71423;SDS011;59240;51.370;-0.486;2022-10-15T13:54:37;8.57;;;1.85;;
71423;SDS011;59240;51.370;-0.486;2022-10-15T13:57:04;10.80;;;2.45;;
71423;SDS011;59240;51.370;-0.486;2022-10-15T13:59:30;9.15;;;1.98;;
71423;SDS011;59240;51.370;-0.486;2022-10-15T14:01:58;7.90;;;2.00;;
71423;SDS011;59240;51.370;-0.486;2022-10-15T14:04:27;8.63;;;1.98;;
71423;SDS011;59240;51.370;-0.486;2022-10-15T14:07:02;8.93;;;1.98;;
71423;SDS011;59240;51.370;-0.486;2022-10-15T14:12:04;11.95;;;2.03;;
71423;SDS011;59240;51.370;-0.486;2022-10-15T14:14:33;8.45;;;1.80;;
71423;SDS011;59240;51.370;-0.486;2022-10-15T14:17:08;8.18;;;1.67;;
71423;SDS011;59240;51.370;-0.486;2022-10-15T14:19:59;7.82;;;1.60;;
71423;SDS011;59240;51.370;-0.486;2022-10-15T14:22:50;7.60;;;1.83;;
71423;SDS011;59240;51.370;-0.486;2022-10-15T14:25:20;6.78;;;1.75;;
71423;SDS011;59240;51.370;-0.486;2022-10-15T14:27:49;12.20;;;1.90;;
71423;SDS011;59240;51.370;-0.486;2022-10-15T14:30:26;6.40;;;1.50;;
71423;SDS011;59240;51.370;-0.486;2022-10-15T14:32:56;12.77;;;1.90;;
71423;SDS011;59240;51.370;-0.486;2022-10-15T14:35:24;10.02;;;1.92;;
71423;SDS011;59240;51.370;-0.486;2022-10-15T14:38:04;9.60;;;1.70;;
71423;SDS011;59240;51.370;-0.486;2022-10-15T14:40:57;7.55;;;2.03;;
71423;SDS011;59240;51.370;-0.486;2022-10-15T14:43:33;9.60;;;2.17;;
71423;SDS011;59240;51.370;-0.486;2022-10-15T14:46:06;7.63;;;1.80;;
71423;SDS011;59240;51.370;-0.486;2022-10-15T14:48:37;10.20;;;1.85;;
71423;SDS011;59240;51.370;-0.486;2022-10-15T14:51:06;4.70;;;1.58;;
71423;SDS011;59240;51.370;-0.486;2022-10-15T14:53:42;7.75;;;1.67;;
71423;SDS011;59240;51.370;-0.486;2022-10-15T14:56:15;9.40;;;1.85;;
71423;SDS011;59240;51.370;-0.486;2022-10-15T14:58:45;10.25;;;2.22;;
71423;SDS011;59240;51.370;-0.486;2022-10-15T15:01:18;10.63;;;1.70;;
71423;SDS011;59240;51.370;-0.486;2022-10-15T15:03:50;6.90;;;1.48;;
71423;SDS011;59240;51.370;-0.486;2022-10-15T15:06:20;7.25;;;1.33;;
71423;SDS011;59240;51.370;-0.486;2022-10-15T15:08:47;9.50;;;1.70;;
71423;SDS011;59240;51.370;-0.486;2022-10-15T15:11:16;7.05;;;1.55;;
71423;SDS011;59240;51.370;-0.486;2022-10-15T15:13:46;6.30;;;1.90;;
71423;SDS011;59240;51.370;-0.486;2022-10-15T15:16:14;8.00;;;1.95;;
71423;SDS011;59240;51.370;-0.486;2022-10-15T15:18:42;8.85;;;1.70;;
71423;SDS011;59240;51.370;-0.486;2022-10-15T15:21:29;9.95;;;2.00;;
71423;SDS011;59240;51.370;-0.486;2022-10-15T15:23:55;8.40;;;1.85;;
71423;SDS011;59240;51.370;-0.486;2022-10-15T15:26:22;7.13;;;1.77;;
71423;SDS011;59240;51.370;-0.486;2022-10-15T15:28:49;5.07;;;1.58;;
71423;SDS011;59240;51.370;-0.486;2022-10-15T15:31:16;9.95;;;2.05;;
71423;SDS011;59240;51.370;-0.486;2022-10-15T15:33:43;11.73;;;2.10;;
71423;SDS011;59240;51.370;-0.486;2022-10-15T15:36:11;9.82;;;1.92;;
71423;SDS011;59240;51.370;-0.486;2022-10-15T15:38:47;8.90;;;1.85;;
71423;SDS011;59240;51.370;-0.486;2022-10-15T15:41:16;11.88;;;2.38;;
71423;SDS011;59240;51.370;-0.486;2022-10-15T15:43:44;8.85;;;2.08;;
71423;SDS011;59240;51.370;-0.486;2022-10-15T15:46:11;10.15;;;1.92;;
71423;SDS011;59240;51.370;-0.486;2022-10-15T15:48:38;6.70;;;1.85;;
71423;SDS011;59240;51.370;-0.486;2022-10-15T15:51:05;8.73;;;1.70;;
71423;SDS011;59240;51.370;-0.486;2022-10-15T15:53:47;7.63;;;1.90;;
71423;SDS011;59240;51.370;-0.486;2022-10-15T15:56:13;8.70;;;1.83;;
71423;SDS011;59240;51.370;-0.486;2022-10-15T15:58:40;8.63;;;2.10;;
71423;SDS011;59240;51.370;-0.486;2022-10-15T16:01:07;7.60;;;2.30;;
71423;SDS011;59240;51.370;-0.486;2022-10-15T16:03:33;9.10;;;2.40;;
71423;SDS011;59240;51.370;-0.486;2022-10-15T16:06:00;10.02;;;2.42;;
71423;SDS011;59240;51.370;-0.486;2022-10-15T16:08:26;8.77;;;2.10;;
71423;SDS011;59240;51.370;-0.486;2022-10-15T16:10:53;9.70;;;2.38;;
71423;SDS011;59240;51.370;-0.486;2022-10-15T16:13:19;10.70;;;2.55;;
71423;SDS011;59240;51.370;-0.486;2022-10-15T16:15:46;8.80;;;2.10;;
71423;SDS011;59240;51.370;-0.486;2022-10-15T16:18:12;11.75;;;2.50;;
71423;SDS011;59240;51.370;-0.486;2022-10-15T16:20:39;9.68;;;2.30;;
71423;SDS011;59240;51.370;-0.486;2022-10-15T16:23:13;11.68;;;2.47;;
71423;SDS011;59240;51.370;-0.486;2022-10-15T16:25:40;10.43;;;2.47;;
71423;SDS011;59240;51.370;-0.486;2022-10-15T16:28:06;9.65;;;2.20;;
71423;SDS011;59240;51.370;-0.486;2022-10-15T16:30:33;13.23;;;2.28;;
71423;SDS011;59240;51.370;-0.486;2022-10-15T16:32:59;9.00;;;2.00;;
71423;SDS011;59240;51.370;-0.486;2022-10-15T16:35:26;10.68;;;2.60;;
71423;SDS011;59240;51.370;-0.486;2022-10-15T16:37:53;10.70;;;2.28;;
71423;SDS011;59240;51.370;-0.486;2022-10-15T16:40:21;9.32;;;2.65;;